Dades meteomassalio
Diari Summary for Febrer 11, 2018 Units:  Both    English   Metric
« Previous Day
Next Day »
Diari Semanal Mensual Anual Personalitzat
  Maxima: Minima: Mijana:
Temperatura: TemperatureC °F /  -17.8 °C 0.0 °F /  -17.8 °C 9.6 °F /  -12.4 °C
Rosada: DewpointC °F /  -17.8 °C -2.4 °F /  -19.1 °C 4.7 °F /  -15.2 °C
Humitat: Humidity % 57 % 72 %
Velocitat del vent: WindSpeedKMH mph /  0 km/h - 18.1 mph /  29.1 km/h
Racha vent: WindSpeedGustKMH mph /  0 km/h - -
Vent:- - NW
Pressio: PressurehPa in /  0 hPa 1018.5 in /  34486.4 hPa -
Pluja: 0.0 in /  0 mm    
Historical Graphs
 
 
Tabular Data for Febrer 11, 2018
Time Temperature Dew Point Pressure Wind Wind Speed Wind Gust Humidity Rainfall Rate (Hourly) solar Conditions
TemperatureC °F /  -17.8 °C DewpointC °F /  -17.8 °C PressurehPa in /  0 hPa Calm     Humidity % HourlyPrecipMM in /  0 mm SolarRadiationWatts/m^2 W/m2 Conditions
00:04 3.9 °F /  -15.6 °C 0.8 °F /  -17.3 °C 1022.9 in /  34635.4 hPa WNW 18.5 mph /  29.8 km/h 18.5 mph /  29.8 km/h 80 % 0.0 in /  0 mm 0.0 W/m2 CLR
00:09 3.9 °F /  -15.6 °C 0.8 °F /  -17.3 °C 1022.9 in /  34635.4 hPa WNW 18.5 mph /  29.8 km/h 18.5 mph /  29.8 km/h 80 % 0.0 in /  0 mm 0.0 W/m2 CLR
00:14 3.9 °F /  -15.6 °C 0.8 °F /  -17.3 °C 1022.9 in /  34635.4 hPa WNW 13.0 mph /  20.9 km/h 13.0 mph /  20.9 km/h 80 % 0.0 in /  0 mm 0.0 W/m2 CLR
00:19 3.9 °F /  -15.6 °C 0.8 °F /  -17.3 °C 1022.9 in /  34635.4 hPa WNW 14.8 mph /  23.8 km/h 14.8 mph /  23.8 km/h 80 % 0.0 in /  0 mm 0.0 W/m2 CLR
00:24 3.3 °F /  -15.9 °C 0.2 °F /  -17.7 °C 1022.9 in /  34635.4 hPa NW 14.8 mph /  23.8 km/h 14.8 mph /  23.8 km/h 80 % 0.0 in /  0 mm 0.0 W/m2 CLR
00:29 3.3 °F /  -15.9 °C 0.2 °F /  -17.7 °C 1023.2 in /  34645.6 hPa WNW 11.1 mph /  17.9 km/h 11.1 mph /  17.9 km/h 80 % 0.0 in /  0 mm 0.0 W/m2 CLR
00:34 3.3 °F /  -15.9 °C 0.4 °F /  -17.6 °C 1023.2 in /  34645.6 hPa West 11.1 mph /  17.9 km/h 11.1 mph /  17.9 km/h 81 % 0.0 in /  0 mm 0.0 W/m2 CLR
00:39 3.3 °F /  -15.9 °C 0.4 °F /  -17.6 °C 1023.2 in /  34645.6 hPa West 7.4 mph /  11.9 km/h 7.4 mph /  11.9 km/h 81 % 0.0 in /  0 mm 0.0 W/m2 CLR
00:44 2.8 °F /  -16.2 °C -0.2 °F /  -17.9 °C 1022.9 in /  34635.4 hPa WNW 9.3 mph /  15 km/h 9.3 mph /  15 km/h 81 % 0.0 in /  0 mm 0.0 W/m2 CLR
00:49 2.8 °F /  -16.2 °C 0.0 °F /  -17.8 °C 1022.9 in /  34635.4 hPa WNW 11.1 mph /  17.9 km/h 11.1 mph /  17.9 km/h 82 % 0.0 in /  0 mm 0.0 W/m2 CLR
00:54 2.2 °F /  -16.6 °C -0.6 °F /  -18.1 °C 1022.9 in /  34635.4 hPa WNW 6.4 mph /  10.3 km/h 6.4 mph /  10.3 km/h 82 % 0.0 in /  0 mm 0.0 W/m2 CLR
00:59 2.2 °F /  -16.6 °C -0.4 °F /  -18 °C 1023.2 in /  34645.6 hPa West 11.1 mph /  17.9 km/h 11.1 mph /  17.9 km/h 83 % 0.0 in /  0 mm 0.0 W/m2 CLR
01:04 2.2 °F /  -16.6 °C -0.4 °F /  -18 °C 1022.9 in /  34635.4 hPa West 7.4 mph /  11.9 km/h 7.4 mph /  11.9 km/h 83 % 0.0 in /  0 mm 0.0 W/m2 CLR
01:09 2.2 °F /  -16.6 °C -0.4 °F /  -18 °C 1022.9 in /  34635.4 hPa West 7.4 mph /  11.9 km/h 7.4 mph /  11.9 km/h 83 % 0.0 in /  0 mm 0.0 W/m2 CLR
01:14 1.7 °F /  -16.8 °C -0.9 °F /  -18.3 °C 1022.9 in /  34635.4 hPa West 5.6 mph /  9 km/h 5.6 mph /  9 km/h 83 % 0.0 in /  0 mm 0.0 W/m2 CLR
01:19 1.7 °F /  -16.8 °C -0.9 °F /  -18.3 °C 1022.9 in /  34635.4 hPa WNW 9.3 mph /  15 km/h 9.3 mph /  15 km/h 83 % 0.0 in /  0 mm 0.0 W/m2 CLR
01:24 1.1 °F /  -17.2 °C -1.4 °F /  -18.6 °C 1022.9 in /  34635.4 hPa West 5.6 mph /  9 km/h 5.6 mph /  9 km/h 83 % 0.0 in /  0 mm 0.0 W/m2 CLR
01:29 1.1 °F /  -17.2 °C -1.3 °F /  -18.5 °C 1022.9 in /  34635.4 hPa West 11.1 mph /  17.9 km/h 11.1 mph /  17.9 km/h 84 % 0.0 in /  0 mm 0.0 W/m2 CLR
01:34 1.1 °F /  -17.2 °C -1.3 °F /  -18.5 °C 1022.9 in /  34635.4 hPa WNW 9.3 mph /  15 km/h 9.3 mph /  15 km/h 84 % 0.0 in /  0 mm 0.0 W/m2 CLR
01:39 0.6 °F /  -17.4 °C -1.8 °F /  -18.8 °C 1022.9 in /  34635.4 hPa WNW 11.3 mph /  18.2 km/h 11.3 mph /  18.2 km/h 84 % 0.0 in /  0 mm 0.0 W/m2 CLR
01:44 0.6 °F /  -17.4 °C -1.8 °F /  -18.8 °C 1022.6 in /  34625.2 hPa West 11.1 mph /  17.9 km/h 11.1 mph /  17.9 km/h 84 % 0.0 in /  0 mm 0.0 W/m2 CLR
01:49 0.0 °F /  -17.8 °C -2.4 °F /  -19.1 °C 1022.6 in /  34625.2 hPa West 13.0 mph /  20.9 km/h 13.0 mph /  20.9 km/h 84 % 0.0 in /  0 mm 0.0 W/m2 CLR
01:54 0.0 °F /  -17.8 °C -2.4 °F /  -19.1 °C 1022.6 in /  34625.2 hPa West 16.7 mph /  26.9 km/h 16.7 mph /  26.9 km/h 84 % 0.0 in /  0 mm 0.0 W/m2 CLR
01:59 0.0 °F /  -17.8 °C -2.4 °F /  -19.1 °C 1022.6 in /  34625.2 hPa West 11.1 mph /  17.9 km/h 11.1 mph /  17.9 km/h 84 % 0.0 in /  0 mm 0.0 W/m2 CLR
02:04 0.0 °F /  -17.8 °C -2.4 °F /  -19.1 °C 1022.6 in /  34625.2 hPa West 13.0 mph /  20.9 km/h 13.0 mph /  20.9 km/h 84 % 0.0 in /  0 mm 0.0 W/m2 CLR
02:09 0.0 °F /  -17.8 °C -2.4 °F /  -19.1 °C 1022.6 in /  34625.2 hPa West 14.8 mph /  23.8 km/h 14.8 mph /  23.8 km/h 84 % 0.0 in /  0 mm 0.0 W/m2 CLR
02:15 0.0 °F /  -17.8 °C -2.4 °F /  -19.1 °C 1022.6 in /  34625.2 hPa West 11.3 mph /  18.2 km/h 11.3 mph /  18.2 km/h 84 % 0.0 in /  0 mm 0.0 W/m2 CLR
02:20 0.0 °F /  -17.8 °C -2.4 °F /  -19.1 °C 1022.6 in /  34625.2 hPa West 7.4 mph /  11.9 km/h 7.4 mph /  11.9 km/h 84 % 0.0 in /  0 mm 0.0 W/m2 CLR
02:25 1.1 °F /  -17.2 °C -1.3 °F /  -18.5 °C 1022.2 in /  34611.7 hPa West 14.8 mph /  23.8 km/h 14.8 mph /  23.8 km/h 84 % 0.0 in /  0 mm 0.0 W/m2 CLR
02:30 1.1 °F /  -17.2 °C -1.3 °F /  -18.5 °C 1022.2 in /  34611.7 hPa WNW 7.4 mph /  11.9 km/h 7.4 mph /  11.9 km/h 84 % 0.0 in /  0 mm 0.0 W/m2 CLR
02:35 1.7 °F /  -16.8 °C -0.6 °F /  -18.1 °C 1022.2 in /  34611.7 hPa NW 20.4 mph /  32.8 km/h 20.4 mph /  32.8 km/h 85 % 0.0 in /  0 mm 0.0 W/m2 CLR
02:40 2.2 °F /  -16.6 °C -0.2 °F /  -17.9 °C 1022.2 in /  34611.7 hPa NW 11.1 mph /  17.9 km/h 11.1 mph /  17.9 km/h 84 % 0.0 in /  0 mm 0.0 W/m2 CLR
02:45 2.2 °F /  -16.6 °C -0.4 °F /  -18 °C 1022.2 in /  34611.7 hPa WNW 13.0 mph /  20.9 km/h 13.0 mph /  20.9 km/h 83 % 0.0 in /  0 mm 0.0 W/m2 CLR
02:50 3.3 °F /  -15.9 °C 0.6 °F /  -17.4 °C 1022.2 in /  34611.7 hPa WNW 13.0 mph /  20.9 km/h 13.0 mph /  20.9 km/h 82 % 0.0 in /  0 mm 0.0 W/m2 CLR
02:55 3.3 °F /  -15.9 °C 0.6 °F /  -17.4 °C 1022.2 in /  34611.7 hPa WNW 16.7 mph /  26.9 km/h 16.7 mph /  26.9 km/h 82 % 0.0 in /  0 mm 0.0 W/m2 CLR
03:00 3.9 °F /  -15.6 °C 0.9 °F /  -17.3 °C 1022.2 in /  34611.7 hPa NW 14.8 mph /  23.8 km/h 14.8 mph /  23.8 km/h 81 % 0.0 in /  0 mm 0.0 W/m2 CLR
03:05 3.9 °F /  -15.6 °C 0.9 °F /  -17.3 °C 1021.9 in /  34601.5 hPa WNW 16.7 mph /  26.9 km/h 16.7 mph /  26.9 km/h 81 % 0.0 in /  0 mm 0.0 W/m2 CLR
03:10 4.4 °F /  -15.3 °C 1.4 °F /  -17 °C 1021.9 in /  34601.5 hPa WNW 14.8 mph /  23.8 km/h 14.8 mph /  23.8 km/h 81 % 0.0 in /  0 mm 0.0 W/m2 CLR
03:15 5.0 °F /  -15 °C 1.8 °F /  -16.8 °C 1021.9 in /  34601.5 hPa WNW 13.0 mph /  20.9 km/h 13.0 mph /  20.9 km/h 80 % 0.0 in /  0 mm 0.0 W/m2 CLR
03:20 5.0 °F /  -15 °C 1.8 °F /  -16.8 °C 1022.2 in /  34611.7 hPa WNW 11.3 mph /  18.2 km/h 11.7 mph /  18.8 km/h 80 % 0.0 in /  0 mm 0.0 W/m2 CLR
03:25 4.4 °F /  -15.3 °C 1.3 °F /  -17.1 °C 1021.9 in /  34601.5 hPa NW 16.7 mph /  26.9 km/h 16.7 mph /  26.9 km/h 80 % 0.0 in /  0 mm 0.0 W/m2 CLR
03:30 5.0 °F /  -15 °C 1.8 °F /  -16.8 °C 1021.9 in /  34601.5 hPa NW 18.5 mph /  29.8 km/h 18.5 mph /  29.8 km/h 80 % 0.0 in /  0 mm 0.0 W/m2 CLR
03:35 5.0 °F /  -15 °C 1.8 °F /  -16.8 °C 1021.9 in /  34601.5 hPa NW 14.8 mph /  23.8 km/h 14.8 mph /  23.8 km/h 80 % 0.0 in /  0 mm 0.0 W/m2 CLR
03:40 5.6 °F /  -14.7 °C 2.4 °F /  -16.4 °C 1021.9 in /  34601.5 hPa NW 14.8 mph /  23.8 km/h 14.8 mph /  23.8 km/h 80 % 0.0 in /  0 mm 0.0 W/m2 CLR
03:45 5.6 °F /  -14.7 °C 2.4 °F /  -16.4 °C 1021.9 in /  34601.5 hPa WNW 19.3 mph /  31.1 km/h 19.3 mph /  31.1 km/h 80 % 0.0 in /  0 mm 0.0 W/m2 CLR
03:50 5.6 °F /  -14.7 °C 2.2 °F /  -16.6 °C 1021.9 in /  34601.5 hPa NW 14.8 mph /  23.8 km/h 14.8 mph /  23.8 km/h 79 % 0.0 in /  0 mm 0.0 W/m2 CLR
03:55 5.6 °F /  -14.7 °C 2.2 °F /  -16.6 °C 1021.9 in /  34601.5 hPa WNW 12.9 mph /  20.8 km/h 12.9 mph /  20.8 km/h 79 % 0.0 in /  0 mm 0.0 W/m2 CLR
04:00 5.6 °F /  -14.7 °C 2.2 °F /  -16.6 °C 1021.9 in /  34601.5 hPa WNW 5.6 mph /  9 km/h 5.6 mph /  9 km/h 79 % 0.0 in /  0 mm 0.0 W/m2 CLR
04:05 5.0 °F /  -15 °C 1.7 °F /  -16.8 °C 1021.9 in /  34601.5 hPa WNW 9.3 mph /  15 km/h 9.3 mph /  15 km/h 79 % 0.0 in /  0 mm 0.0 W/m2 CLR
04:10 5.0 °F /  -15 °C 1.7 °F /  -16.8 °C 1021.9 in /  34601.5 hPa Calm     79 % 0.0 in /  0 mm 0.0 W/m2 CLR
04:15 5.0 °F /  -15 °C 1.7 °F /  -16.8 °C 1021.9 in /  34601.5 hPa Calm     79 % 0.0 in /  0 mm 0.0 W/m2 CLR
04:20 5.0 °F /  -15 °C 1.7 °F /  -16.8 °C 1021.9 in /  34601.5 hPa WNW 9.3 mph /  15 km/h 9.3 mph /  15 km/h 79 % 0.0 in /  0 mm 0.0 W/m2 CLR
04:25 4.4 °F /  -15.3 °C 1.1 °F /  -17.2 °C 1021.6 in /  34591.4 hPa Calm     79 % 0.0 in /  0 mm 0.0 W/m2 CLR
04:30 4.4 °F /  -15.3 °C 1.1 °F /  -17.2 °C 1021.6 in /  34591.4 hPa West 5.6 mph /  9 km/h 5.6 mph /  9 km/h 79 % 0.0 in /  0 mm 0.0 W/m2 CLR
04:35 4.4 °F /  -15.3 °C 1.1 °F /  -17.2 °C 1021.6 in /  34591.4 hPa WNW 14.8 mph /  23.8 km/h 14.8 mph /  23.8 km/h 79 % 0.0 in /  0 mm 0.0 W/m2 CLR
04:40 4.4 °F /  -15.3 °C 0.9 °F /  -17.3 °C 1021.6 in /  34591.4 hPa WNW 13.0 mph /  20.9 km/h 13.0 mph /  20.9 km/h 78 % 0.0 in /  0 mm 0.0 W/m2 CLR
04:45 5.0 °F /  -15 °C 1.5 °F /  -16.9 °C 1021.6 in /  34591.4 hPa NW 13.0 mph /  20.9 km/h 13.0 mph /  20.9 km/h 78 % 0.0 in /  0 mm 0.0 W/m2 CLR
04:50 5.0 °F /  -15 °C 1.5 °F /  -16.9 °C 1021.2 in /  34577.8 hPa Calm     78 % 0.0 in /  0 mm 0.0 W/m2 CLR
04:55 5.0 °F /  -15 °C 1.5 °F /  -16.9 °C 1021.2 in /  34577.8 hPa WNW 14.8 mph /  23.8 km/h 14.8 mph /  23.8 km/h 78 % 0.0 in /  0 mm 0.0 W/m2 CLR
05:00 5.6 °F /  -14.7 °C 2.0 °F /  -16.7 °C 1021.2 in /  34577.8 hPa WNW 11.1 mph /  17.9 km/h 11.1 mph /  17.9 km/h 78 % 0.0 in /  0 mm 0.0 W/m2 CLR
05:05 5.6 °F /  -14.7 °C 1.8 °F /  -16.8 °C 1021.2 in /  34577.8 hPa WNW 13.0 mph /  20.9 km/h 13.0 mph /  20.9 km/h 77 % 0.0 in /  0 mm 0.0 W/m2 CLR
05:10 5.0 °F /  -15 °C 1.3 °F /  -17.1 °C 1021.2 in /  34577.8 hPa WNW 18.5 mph /  29.8 km/h 18.5 mph /  29.8 km/h 77 % 0.0 in /  0 mm 0.0 W/m2 CLR
05:15 5.0 °F /  -15 °C 1.3 °F /  -17.1 °C 1021.2 in /  34577.8 hPa NW 13.0 mph /  20.9 km/h 13.0 mph /  20.9 km/h 77 % 0.0 in /  0 mm 0.0 W/m2 CLR
05:20 5.0 °F /  -15 °C 1.3 °F /  -17.1 °C 1021.2 in /  34577.8 hPa WNW 1.9 mph /  3.1 km/h   77 % 0.0 in /  0 mm 0.0 W/m2 CLR
05:25 4.4 °F /  -15.3 °C 0.8 °F /  -17.3 °C 1021.2 in /  34577.8 hPa WNW 11.1 mph /  17.9 km/h 11.1 mph /  17.9 km/h 77 % 0.0 in /  0 mm 0.0 W/m2 CLR
05:30 4.4 °F /  -15.3 °C 0.8 °F /  -17.3 °C 1021.2 in /  34577.8 hPa NW 9.7 mph /  15.6 km/h 9.7 mph /  15.6 km/h 77 % 0.0 in /  0 mm 0.0 W/m2 CLR
05:35 4.4 °F /  -15.3 °C 0.8 °F /  -17.3 °C 1021.2 in /  34577.8 hPa NW 11.1 mph /  17.9 km/h 11.1 mph /  17.9 km/h 77 % 0.0 in /  0 mm 0.0 W/m2 CLR
05:40 4.4 °F /  -15.3 °C 0.8 °F /  -17.3 °C 1021.2 in /  34577.8 hPa NW 14.8 mph /  23.8 km/h 14.8 mph /  23.8 km/h 77 % 0.0 in /  0 mm 0.0 W/m2 CLR
05:45 4.4 °F /  -15.3 °C 0.6 °F /  -17.4 °C 1021.2 in /  34577.8 hPa WNW 14.8 mph /  23.8 km/h 14.8 mph /  23.8 km/h 76 % 0.0 in /  0 mm 0.0 W/m2 CLR
05:50 5.0 °F /  -15 °C 1.1 °F /  -17.2 °C 1021.2 in /  34577.8 hPa NW 14.8 mph /  23.8 km/h 14.8 mph /  23.8 km/h 76 % 0.0 in /  0 mm 0.0 W/m2 CLR
05:55 5.0 °F /  -15 °C 1.1 °F /  -17.2 °C 1021.2 in /  34577.8 hPa NW 13.0 mph /  20.9 km/h 13.0 mph /  20.9 km/h 76 % 0.0 in /  0 mm 0.0 W/m2 CLR
06:00 5.0 °F /  -15 °C 1.1 °F /  -17.2 °C 1021.2 in /  34577.8 hPa Calm     76 % 0.0 in /  0 mm 0.0 W/m2 CLR
06:05 5.0 °F /  -15 °C 1.1 °F /  -17.2 °C 1021.6 in /  34591.4 hPa Calm     76 % 0.0 in /  0 mm 0.0 W/m2 CLR
06:10 5.0 °F /  -15 °C 1.1 °F /  -17.2 °C 1021.6 in /  34591.4 hPa Calm     76 % 0.0 in /  0 mm 0.0 W/m2 CLR
06:15 4.4 °F /  -15.3 °C 0.6 °F /  -17.4 °C 1021.2 in /  34577.8 hPa Calm     76 % 0.0 in /  0 mm 0.0 W/m2 CLR
06:20 4.4 °F /  -15.3 °C 0.6 °F /  -17.4 °C 1021.2 in /  34577.8 hPa NW 3.7 mph /  6 km/h 3.7 mph /  6 km/h 76 % 0.0 in /  0 mm 0.0 W/m2 CLR
06:25 4.4 °F /  -15.3 °C 0.8 °F /  -17.3 °C 1021.2 in /  34577.8 hPa Calm     77 % 0.0 in /  0 mm 0.0 W/m2 CLR
06:30 4.4 °F /  -15.3 °C 0.8 °F /  -17.3 °C 1021.2 in /  34577.8 hPa Calm     77 % 0.0 in /  0 mm 0.0 W/m2 CLR
06:35 4.4 °F /  -15.3 °C 0.9 °F /  -17.3 °C 1021.2 in /  34577.8 hPa Calm     78 % 0.0 in /  0 mm 0.0 W/m2 CLR
06:40 4.4 °F /  -15.3 °C 0.8 °F /  -17.3 °C 1021.2 in /  34577.8 hPa Calm     77 % 0.0 in /  0 mm 0.0 W/m2 CLR
06:45 5.0 °F /  -15 °C 1.3 °F /  -17.1 °C 1021.2 in /  34577.8 hPa Calm     77 % 0.0 in /  0 mm 0.0 W/m2 CLR
06:50 5.0 °F /  -15 °C 1.3 °F /  -17.1 °C 1021.2 in /  34577.8 hPa Calm     77 % 0.0 in /  0 mm 0.0 W/m2 CLR
06:55 5.0 °F /  -15 °C 1.5 °F /  -16.9 °C 1021.2 in /  34577.8 hPa Calm     78 % 0.0 in /  0 mm 0.0 W/m2 CLR
07:00 5.0 °F /  -15 °C 1.5 °F /  -16.9 °C 1020.9 in /  34567.7 hPa Calm     78 % 0.0 in /  0 mm 0.0 W/m2 CLR
07:05 4.4 °F /  -15.3 °C 0.9 °F /  -17.3 °C 1020.9 in /  34567.7 hPa Calm     78 % 0.0 in /  0 mm 0.0 W/m2 CLR
07:10 4.4 °F /  -15.3 °C 1.1 °F /  -17.2 °C 1020.9 in /  34567.7 hPa Calm     79 % 0.0 in /  0 mm 0.0 W/m2 CLR
07:15 4.4 °F /  -15.3 °C 1.1 °F /  -17.2 °C 1020.9 in /  34567.7 hPa Calm     79 % 0.0 in /  0 mm 0.0 W/m2 CLR
07:20 4.4 °F /  -15.3 °C 1.1 °F /  -17.2 °C 1020.9 in /  34567.7 hPa West 1.9 mph /  3.1 km/h   79 % 0.0 in /  0 mm 0.0 W/m2 CLR
07:25 4.4 °F /  -15.3 °C 1.1 °F /  -17.2 °C 1020.9 in /  34567.7 hPa WNW 3.7 mph /  6 km/h 3.7 mph /  6 km/h 79 % 0.0 in /  0 mm 0.0 W/m2 CLR
07:30 4.4 °F /  -15.3 °C 1.1 °F /  -17.2 °C 1020.9 in /  34567.7 hPa West 5.6 mph /  9 km/h 5.6 mph /  9 km/h 79 % 0.0 in /  0 mm 0.0 W/m2 CLR
07:35 4.4 °F /  -15.3 °C 0.9 °F /  -17.3 °C 1020.9 in /  34567.7 hPa Calm     78 % 0.0 in /  0 mm 0.0 W/m2 CLR
07:40 4.4 °F /  -15.3 °C 0.8 °F /  -17.3 °C 1021.2 in /  34577.8 hPa Calm     77 % 0.0 in /  0 mm 0.0 W/m2 CLR
07:45 3.9 °F /  -15.6 °C 0.2 °F /  -17.7 °C 1021.2 in /  34577.8 hPa Calm     77 % 0.0 in /  0 mm 0.0 W/m2 CLR
07:50 4.4 °F /  -15.3 °C 0.8 °F /  -17.3 °C 1020.9 in /  34567.7 hPa Calm     77 % 0.0 in /  0 mm 0.0 W/m2 OVC
07:55 4.4 °F /  -15.3 °C 0.9 °F /  -17.3 °C 1021.2 in /  34577.8 hPa Calm     78 % 0.0 in /  0 mm 0.0 W/m2 OVC
08:00 4.4 °F /  -15.3 °C 0.9 °F /  -17.3 °C 1021.2 in /  34577.8 hPa Calm     78 % 0.0 in /  0 mm 0.0 W/m2 OVC
08:07 4.4 °F /  -15.3 °C 0.9 °F /  -17.3 °C 1021.2 in /  34577.8 hPa West 1.9 mph /  3.1 km/h   78 % 0.0 in /  0 mm 5.0 W/m2 OVC
08:12 4.4 °F /  -15.3 °C 0.9 °F /  -17.3 °C 1021.2 in /  34577.8 hPa Calm     78 % 0.0 in /  0 mm 7.0 W/m2 BKN
08:17 4.4 °F /  -15.3 °C 0.9 °F /  -17.3 °C 1020.9 in /  34567.7 hPa Calm     78 % 0.0 in /  0 mm 11.0 W/m2 BKN
08:22 4.4 °F /  -15.3 °C 0.9 °F /  -17.3 °C 1020.9 in /  34567.7 hPa Calm     78 % 0.0 in /  0 mm 12.0 W/m2 BKN
08:27 5.0 °F /  -15 °C 1.5 °F /  -16.9 °C 1020.9 in /  34567.7 hPa West 9.3 mph /  15 km/h 9.3 mph /  15 km/h 78 % 0.0 in /  0 mm 14.0 W/m2 BKN
08:32 5.0 °F /  -15 °C 1.5 °F /  -16.9 °C 1020.9 in /  34567.7 hPa West 5.6 mph /  9 km/h 5.6 mph /  9 km/h 78 % 0.0 in /  0 mm 18.0 W/m2 BKN
08:37 5.0 °F /  -15 °C 1.5 °F /  -16.9 °C 1020.9 in /  34567.7 hPa West 5.6 mph /  9 km/h 5.6 mph /  9 km/h 78 % 0.0 in /  0 mm 23.0 W/m2 BKN
08:42 5.6 °F /  -14.7 °C 1.8 °F /  -16.8 °C 1021.2 in /  34577.8 hPa WNW 3.7 mph /  6 km/h 3.7 mph /  6 km/h 77 % 0.0 in /  0 mm 35.0 W/m2 BKN
08:47 5.6 °F /  -14.7 °C 1.7 °F /  -16.8 °C 1021.2 in /  34577.8 hPa West 4.8 mph /  7.7 km/h 4.8 mph /  7.7 km/h 76 % 0.0 in /  0 mm 40.0 W/m2 BKN
08:52 5.6 °F /  -14.7 °C 1.7 °F /  -16.8 °C 1021.2 in /  34577.8 hPa West 8.0 mph /  12.9 km/h 8.0 mph /  12.9 km/h 76 % 0.0 in /  0 mm 37.0 W/m2 BKN
08:57 6.1 °F /  -14.4 °C 2.2 °F /  -16.6 °C 1021.2 in /  34577.8 hPa WNW 12.9 mph /  20.8 km/h 12.9 mph /  20.8 km/h 76 % 0.0 in /  0 mm 33.0 W/m2 BKN
09:02 6.7 °F /  -14.1 °C 2.6 °F /  -16.3 °C 1021.2 in /  34577.8 hPa WNW 5.6 mph /  9 km/h 5.6 mph /  9 km/h 75 % 0.0 in /  0 mm 42.0 W/m2 BKN
09:07 7.8 °F /  -13.4 °C 3.6 °F /  -15.8 °C 1021.6 in /  34591.4 hPa WNW 14.8 mph /  23.8 km/h 14.8 mph /  23.8 km/h 75 % 0.0 in /  0 mm 49.0 W/m2 BKN
09:12 7.8 °F /  -13.4 °C 3.8 °F /  -15.7 °C 1021.6 in /  34591.4 hPa WNW 20.4 mph /  32.8 km/h 20.4 mph /  32.8 km/h 76 % 0.0 in /  0 mm 51.0 W/m2 SCT
09:17 8.3 °F /  -13.2 °C 4.3 °F /  -15.4 °C 1021.2 in /  34577.8 hPa NW 16.7 mph /  26.9 km/h 16.7 mph /  26.9 km/h 76 % 0.0 in /  0 mm 54.0 W/m2 SCT
09:22 8.3 °F /  -13.2 °C 4.3 °F /  -15.4 °C 1021.2 in /  34577.8 hPa NW 22.2 mph /  35.7 km/h 22.2 mph /  35.7 km/h 76 % 0.0 in /  0 mm 79.0 W/m2 SCT
09:27 8.9 °F /  -12.8 °C 4.9 °F /  -15.1 °C 1021.2 in /  34577.8 hPa WNW 18.5 mph /  29.8 km/h 18.5 mph /  29.8 km/h 76 % 0.0 in /  0 mm 70.0 W/m2 FEW
09:33 8.9 °F /  -12.8 °C 4.9 °F /  -15.1 °C 1021.2 in /  34577.8 hPa WNW 14.8 mph /  23.8 km/h 14.8 mph /  23.8 km/h 76 % 0.0 in /  0 mm 93.0 W/m2 FEW
09:38 8.9 °F /  -12.8 °C 5.1 °F /  -14.9 °C 1021.2 in /  34577.8 hPa NW 18.5 mph /  29.8 km/h 18.5 mph /  29.8 km/h 77 % 0.0 in /  0 mm 95.0 W/m2 CLR
09:43 9.4 °F /  -12.6 °C 5.6 °F /  -14.7 °C 1021.2 in /  34577.8 hPa NW 14.8 mph /  23.8 km/h 14.8 mph /  23.8 km/h 77 % 0.0 in /  0 mm 109.0 W/m2 CLR
09:48 9.4 °F /  -12.6 °C 5.6 °F /  -14.7 °C 1021.2 in /  34577.8 hPa WNW 20.9 mph /  33.6 km/h 20.9 mph /  33.6 km/h 77 % 0.0 in /  0 mm 135.0 W/m2 CLR
09:53 9.4 °F /  -12.6 °C 5.4 °F /  -14.8 °C 1021.2 in /  34577.8 hPa WNW 18.5 mph /  29.8 km/h 18.5 mph /  29.8 km/h 76 % 0.0 in /  0 mm 134.0 W/m2 CLR
09:58 10.0 °F /  -12.2 °C 6.2 °F /  -14.3 °C 1021.6 in /  34591.4 hPa NW 18.5 mph /  29.8 km/h 18.5 mph /  29.8 km/h 77 % 0.0 in /  0 mm 155.0 W/m2 CLR
10:03 10.0 °F /  -12.2 °C 5.9 °F /  -14.5 °C 1021.6 in /  34591.4 hPa NW 18.5 mph /  29.8 km/h 18.5 mph /  29.8 km/h 76 % 0.0 in /  0 mm 141.0 W/m2 CLR
10:08 10.0 °F /  -12.2 °C 6.2 °F /  -14.3 °C 1021.6 in /  34591.4 hPa North 11.3 mph /  18.2 km/h 11.3 mph /  18.2 km/h 77 % 0.0 in /  0 mm 120.0 W/m2 CLR
10:13 10.6 °F /  -11.9 °C 6.7 °F /  -14.1 °C 1021.2 in /  34577.8 hPa NW 18.5 mph /  29.8 km/h 18.5 mph /  29.8 km/h 77 % 0.0 in /  0 mm 197.0 W/m2 CLR
10:18 10.6 °F /  -11.9 °C 6.7 °F /  -14.1 °C 1021.6 in /  34591.4 hPa NNW 24.1 mph /  38.8 km/h 24.1 mph /  38.8 km/h 77 % 0.0 in /  0 mm 204.0 W/m2 CLR
10:23 11.1 °F /  -11.6 °C 7.1 °F /  -13.8 °C 1021.6 in /  34591.4 hPa NW 27.4 mph /  44.1 km/h 27.4 mph /  44.1 km/h 76 % 0.0 in /  0 mm 153.0 W/m2 CLR
10:28 11.1 °F /  -11.6 °C 6.8 °F /  -14 °C 1021.6 in /  34591.4 hPa NW 18.5 mph /  29.8 km/h 18.5 mph /  29.8 km/h 75 % 0.0 in /  0 mm 169.0 W/m2 CLR
10:33 11.1 °F /  -11.6 °C 6.8 °F /  -14 °C 1021.2 in /  34577.8 hPa NW 22.2 mph /  35.7 km/h 22.2 mph /  35.7 km/h 75 % 0.0 in /  0 mm 237.0 W/m2 CLR
10:38 11.1 °F /  -11.6 °C 6.7 °F /  -14.1 °C 1021.2 in /  34577.8 hPa WNW 18.5 mph /  29.8 km/h 18.5 mph /  29.8 km/h 74 % 0.0 in /  0 mm 172.0 W/m2 CLR
10:43 11.1 °F /  -11.6 °C 6.7 °F /  -14.1 °C 1021.2 in /  34577.8 hPa NW 27.8 mph /  44.7 km/h 27.8 mph /  44.7 km/h 74 % 0.0 in /  0 mm 185.0 W/m2 CLR
10:48 11.7 °F /  -11.3 °C 7.2 °F /  -13.8 °C 1021.2 in /  34577.8 hPa NW 33.3 mph /  53.6 km/h 33.3 mph /  53.6 km/h 74 % 0.0 in /  0 mm 221.0 W/m2 CLR
10:53 11.7 °F /  -11.3 °C 7.2 °F /  -13.8 °C 1021.2 in /  34577.8 hPa NNW 22.2 mph /  35.7 km/h 22.2 mph /  35.7 km/h 74 % 0.0 in /  0 mm 216.0 W/m2 CLR
10:58 11.7 °F /  -11.3 °C 7.2 °F /  -13.8 °C 1021.2 in /  34577.8 hPa NNW 20.4 mph /  32.8 km/h 20.4 mph /  32.8 km/h 74 % 0.0 in /  0 mm 216.0 W/m2 CLR
11:03 11.7 °F /  -11.3 °C 7.0 °F /  -13.9 °C 1021.6 in /  34591.4 hPa NW 24.1 mph /  38.8 km/h 24.1 mph /  38.8 km/h 73 % 0.0 in /  0 mm 237.0 W/m2 CLR
11:08 12.2 °F /  -11 °C 7.3 °F /  -13.7 °C 1021.6 in /  34591.4 hPa NNW 31.5 mph /  50.7 km/h 31.5 mph /  50.7 km/h 72 % 0.0 in /  0 mm 258.0 W/m2 CLR
11:13 12.2 °F /  -11 °C 7.5 °F /  -13.6 °C 1021.2 in /  34577.8 hPa NNW 25.7 mph /  41.4 km/h 25.7 mph /  41.4 km/h 73 % 0.0 in /  0 mm 193.0 W/m2 CLR
11:18 12.8 °F /  -10.7 °C 7.8 °F /  -13.4 °C 1021.2 in /  34577.8 hPa NNW 24.1 mph /  38.8 km/h 24.1 mph /  38.8 km/h 72 % 0.0 in /  0 mm 482.0 W/m2 CLR
11:23 12.8 °F /  -10.7 °C 7.8 °F /  -13.4 °C 1021.2 in /  34577.8 hPa NNW 27.8 mph /  44.7 km/h 27.8 mph /  44.7 km/h 72 % 0.0 in /  0 mm 547.0 W/m2 CLR
11:28 12.8 °F /  -10.7 °C 7.8 °F /  -13.4 °C 1021.2 in /  34577.8 hPa NW 24.1 mph /  38.8 km/h 24.1 mph /  38.8 km/h 72 % 0.0 in /  0 mm 547.0 W/m2 CLR
11:33 13.3 °F /  -10.4 °C 8.2 °F /  -13.2 °C 1021.2 in /  34577.8 hPa NW 27.8 mph /  44.7 km/h 27.8 mph /  44.7 km/h 71 % 0.0 in /  0 mm 223.0 W/m2 CLR
11:38 13.3 °F /  -10.4 °C 8.2 °F /  -13.2 °C 1021.2 in /  34577.8 hPa NW 25.9 mph /  41.7 km/h 25.9 mph /  41.7 km/h 71 % 0.0 in /  0 mm 251.0 W/m2 CLR
11:43 13.3 °F /  -10.4 °C 8.0 °F /  -13.3 °C 1021.2 in /  34577.8 hPa North 31.5 mph /  50.7 km/h 31.5 mph /  50.7 km/h 70 % 0.0 in /  0 mm 320.0 W/m2 CLR
11:48 13.3 °F /  -10.4 °C 8.0 °F /  -13.3 °C 1021.2 in /  34577.8 hPa NW 20.4 mph /  32.8 km/h 20.4 mph /  32.8 km/h 70 % 0.0 in /  0 mm 248.0 W/m2 CLR
11:53 13.3 °F /  -10.4 °C 7.8 °F /  -13.4 °C 1021.2 in /  34577.8 hPa WNW 27.8 mph /  44.7 km/h 27.8 mph /  44.7 km/h 69 % 0.0 in /  0 mm 197.0 W/m2 CLR
11:58 13.3 °F /  -10.4 °C 7.6 °F /  -13.6 °C 1021.2 in /  34577.8 hPa NNW 37.0 mph /  59.5 km/h 37.0 mph /  59.5 km/h 68 % 0.0 in /  0 mm 768.0 W/m2 CLR
12:03 13.9 °F /  -10.1 °C 7.8 °F /  -13.4 °C 1021.2 in /  34577.8 hPa NW 35.2 mph /  56.6 km/h 35.2 mph /  56.6 km/h 67 % 0.0 in /  0 mm 302.0 W/m2 CLR
12:08 13.9 °F /  -10.1 °C 8.3 °F /  -13.2 °C 1021.2 in /  34577.8 hPa North 22.2 mph /  35.7 km/h 22.2 mph /  35.7 km/h 69 % 0.0 in /  0 mm 536.0 W/m2 CLR
12:13 13.9 °F /  -10.1 °C 7.8 °F /  -13.4 °C 1021.2 in /  34577.8 hPa North 31.5 mph /  50.7 km/h 31.5 mph /  50.7 km/h 67 % 0.0 in /  0 mm 696.0 W/m2 CLR
12:18 14.4 °F /  -9.8 °C 8.6 °F /  -13 °C 1020.9 in /  34567.7 hPa NW 25.9 mph /  41.7 km/h 25.9 mph /  41.7 km/h 68 % 0.0 in /  0 mm 703.0 W/m2 CLR
12:23 15.0 °F /  -9.4 °C 8.7 °F /  -12.9 °C 1020.9 in /  34567.7 hPa NNW 35.2 mph /  56.6 km/h 35.2 mph /  56.6 km/h 66 % 0.0 in /  0 mm 728.0 W/m2 CLR
12:28 15.0 °F /  -9.4 °C 8.9 °F /  -12.8 °C 1020.9 in /  34567.7 hPa NNW 24.1 mph /  38.8 km/h 24.1 mph /  38.8 km/h 67 % 0.0 in /  0 mm 759.0 W/m2 CLR
12:33 15.0 °F /  -9.4 °C 8.7 °F /  -12.9 °C 1020.9 in /  34567.7 hPa NNW 27.8 mph /  44.7 km/h 27.8 mph /  44.7 km/h 66 % 0.0 in /  0 mm 341.0 W/m2 CLR
12:38 15.6 °F /  -9.1 °C 9.0 °F /  -12.8 °C 1020.9 in /  34567.7 hPa NW 33.8 mph /  54.4 km/h 33.8 mph /  54.4 km/h 65 % 0.0 in /  0 mm 714.0 W/m2 CLR
12:43 15.0 °F /  -9.4 °C 8.7 °F /  -12.9 °C 1020.5 in /  34554.1 hPa WNW 31.5 mph /  50.7 km/h 31.5 mph /  50.7 km/h 66 % 0.0 in /  0 mm 694.0 W/m2 CLR
12:48 15.6 °F /  -9.1 °C 9.0 °F /  -12.8 °C 1020.5 in /  34554.1 hPa NW 22.2 mph /  35.7 km/h 22.2 mph /  35.7 km/h 65 % 0.0 in /  0 mm 668.0 W/m2 CLR
12:53 15.6 °F /  -9.1 °C 9.0 °F /  -12.8 °C 1020.5 in /  34554.1 hPa NW 29.6 mph /  47.6 km/h 29.6 mph /  47.6 km/h 65 % 0.0 in /  0 mm 216.0 W/m2 CLR
12:58 15.0 °F /  -9.4 °C 8.4 °F /  -13.1 °C 1020.5 in /  34554.1 hPa NW 20.4 mph /  32.8 km/h 20.4 mph /  32.8 km/h 65 % 0.0 in /  0 mm 693.0 W/m2 CLR
13:03 15.6 °F /  -9.1 °C 8.8 °F /  -12.9 °C 1020.2 in /  34544 hPa NW 29.6 mph /  47.6 km/h 29.6 mph /  47.6 km/h 64 % 0.0 in /  0 mm 659.0 W/m2 CLR
13:08 16.1 °F /  -8.8 °C 9.3 °F /  -12.6 °C 1020.2 in /  34544 hPa NW 29.6 mph /  47.6 km/h 29.6 mph /  47.6 km/h 64 % 0.0 in /  0 mm 619.0 W/m2 CLR
13:13 16.1 °F /  -8.8 °C 9.1 °F /  -12.7 °C 1019.9 in /  34533.8 hPa NW 31.5 mph /  50.7 km/h 31.5 mph /  50.7 km/h 63 % 0.0 in /  0 mm 619.0 W/m2 CLR
13:14 16.1 °F /  -8.8 °C 9.1 °F /  -12.7 °C 1019.9 in /  34533.8 hPa NNW 31.5 mph /  50.7 km/h 31.5 mph /  50.7 km/h 63 % 0.0 in /  0 mm 615.0 W/m2 CLR
13:19 16.7 °F /  -8.5 °C 9.6 °F /  -12.4 °C 1019.9 in /  34533.8 hPa NNW 35.2 mph /  56.6 km/h 35.2 mph /  56.6 km/h 63 % 0.0 in /  0 mm 624.0 W/m2 CLR
13:24 16.1 °F /  -8.8 °C 9.1 °F /  -12.7 °C 1019.9 in /  34533.8 hPa NNW 25.9 mph /  41.7 km/h 25.9 mph /  41.7 km/h 63 % 0.0 in /  0 mm 645.0 W/m2 CLR
13:29 16.7 °F /  -8.5 °C 9.6 °F /  -12.4 °C 1019.9 in /  34533.8 hPa North 31.5 mph /  50.7 km/h 31.5 mph /  50.7 km/h 63 % 0.0 in /  0 mm 721.0 W/m2 CLR
13:34 17.2 °F /  -8.2 °C 9.9 °F /  -12.3 °C 1019.5 in /  34520.3 hPa WNW 20.4 mph /  32.8 km/h 20.4 mph /  32.8 km/h 62 % 0.0 in /  0 mm 701.0 W/m2 CLR
13:39 17.2 °F /  -8.2 °C 9.4 °F /  -12.6 °C 1019.9 in /  34533.8 hPa North 31.5 mph /  50.7 km/h 31.5 mph /  50.7 km/h 60 % 0.0 in /  0 mm 163.0 W/m2 CLR
13:44 16.7 °F /  -8.5 °C 9.1 °F /  -12.7 °C 1019.5 in /  34520.3 hPa NW 22.2 mph /  35.7 km/h 22.2 mph /  35.7 km/h 61 % 0.0 in /  0 mm 244.0 W/m2 CLR
13:49 16.7 °F /  -8.5 °C 9.1 °F /  -12.7 °C 1019.5 in /  34520.3 hPa North 29.0 mph /  46.7 km/h 29.0 mph /  46.7 km/h 61 % 0.0 in /  0 mm 134.0 W/m2 CLR
13:54 16.1 °F /  -8.8 °C 8.8 °F /  -12.9 °C 1019.5 in /  34520.3 hPa NNW 37.0 mph /  59.5 km/h 37.0 mph /  59.5 km/h 62 % 0.0 in /  0 mm 677.0 W/m2 CLR
13:59 17.2 °F /  -8.2 °C 9.9 °F /  -12.3 °C 1019.5 in /  34520.3 hPa NNW 33.3 mph /  53.6 km/h 35.1 mph /  56.5 km/h 62 % 0.0 in /  0 mm 664.0 W/m2 CLR
14:04 17.2 °F /  -8.2 °C 9.6 °F /  -12.4 °C 1019.5 in /  34520.3 hPa NNE 37.0 mph /  59.5 km/h 37.0 mph /  59.5 km/h 61 % 0.0 in /  0 mm 677.0 W/m2 CLR
14:09 16.7 °F /  -8.5 °C 9.1 °F /  -12.7 °C 1019.5 in /  34520.3 hPa North 35.4 mph /  57 km/h 35.4 mph /  57 km/h 61 % 0.0 in /  0 mm 703.0 W/m2 CLR
14:14 17.2 °F /  -8.2 °C 9.6 °F /  -12.4 °C 1019.5 in /  34520.3 hPa NNW 40.7 mph /  65.5 km/h 40.7 mph /  65.5 km/h 61 % 0.0 in /  0 mm 271.0 W/m2 CLR
14:19 17.2 °F /  -8.2 °C 9.9 °F /  -12.3 °C 1019.5 in /  34520.3 hPa NNW 33.8 mph /  54.4 km/h 33.8 mph /  54.4 km/h 62 % 0.0 in /  0 mm 796.0 W/m2 CLR
14:24 17.2 °F /  -8.2 °C 9.4 °F /  -12.6 °C 1019.2 in /  34510.1 hPa NNW 29.0 mph /  46.7 km/h 29.0 mph /  46.7 km/h 60 % 0.0 in /  0 mm 378.0 W/m2 CLR
14:29 16.1 °F /  -8.8 °C 8.6 °F /  -13 °C 1019.2 in /  34510.1 hPa NNW 35.2 mph /  56.6 km/h 35.2 mph /  56.6 km/h 61 % 0.0 in /  0 mm 294.0 W/m2 CLR
14:34 16.7 °F /  -8.5 °C 9.1 °F /  -12.7 °C 1019.2 in /  34510.1 hPa NNW 31.5 mph /  50.7 km/h 31.5 mph /  50.7 km/h 61 % 0.0 in /  0 mm 294.0 W/m2 CLR
14:39 17.2 °F /  -8.2 °C 9.6 °F /  -12.4 °C 1019.2 in /  34510.1 hPa North 32.2 mph /  51.8 km/h 32.2 mph /  51.8 km/h 61 % 0.0 in /  0 mm 236.0 W/m2 CLR
14:45 16.7 °F /  -8.5 °C 9.1 °F /  -12.7 °C 1018.8 in /  34496.6 hPa NNW 31.5 mph /  50.7 km/h 31.5 mph /  50.7 km/h 61 % 0.0 in /  0 mm 186.0 W/m2 CLR
14:49 16.7 °F /  -8.5 °C 9.1 °F /  -12.7 °C 1018.8 in /  34496.6 hPa North 32.2 mph /  51.8 km/h 32.2 mph /  51.8 km/h 61 % 0.0 in /  0 mm 554.0 W/m2 CLR
14:55 17.2 °F /  -8.2 °C 9.1 °F /  -12.7 °C 1018.8 in /  34496.6 hPa NNW 32.2 mph /  51.8 km/h 32.2 mph /  51.8 km/h 59 % 0.0 in /  0 mm 538.0 W/m2 CLR
15:00 17.2 °F /  -8.2 °C 9.1 °F /  -12.7 °C 1018.8 in /  34496.6 hPa NW 27.8 mph /  44.7 km/h 27.8 mph /  44.7 km/h 59 % 0.0 in /  0 mm 287.0 W/m2 CLR
15:05 17.2 °F /  -8.2 °C 9.1 °F /  -12.7 °C 1018.8 in /  34496.6 hPa NNW 31.5 mph /  50.7 km/h 31.5 mph /  50.7 km/h 59 % 0.0 in /  0 mm 608.0 W/m2 CLR
15:10 16.7 °F /  -8.5 °C 8.6 °F /  -13 °C 1018.8 in /  34496.6 hPa North 33.3 mph /  53.6 km/h 33.3 mph /  53.6 km/h 59 % 0.0 in /  0 mm 185.0 W/m2 CLR
15:15 16.1 °F /  -8.8 °C 8.3 °F /  -13.2 °C 1018.8 in /  34496.6 hPa North 24.1 mph /  38.8 km/h 24.1 mph /  38.8 km/h 60 % 0.0 in /  0 mm 135.0 W/m2 CLR
15:20 16.1 °F /  -8.8 °C 8.3 °F /  -13.2 °C 1018.8 in /  34496.6 hPa NW 24.1 mph /  38.8 km/h 24.1 mph /  38.8 km/h 60 % 0.0 in /  0 mm 107.0 W/m2 CLR
15:25 15.6 °F /  -9.1 °C 7.8 °F /  -13.4 °C 1018.8 in /  34496.6 hPa NNW 31.5 mph /  50.7 km/h 31.5 mph /  50.7 km/h 60 % 0.0 in /  0 mm 114.0 W/m2 CLR
15:30 15.6 °F /  -9.1 °C 7.8 °F /  -13.4 °C 1018.8 in /  34496.6 hPa NNW 27.4 mph /  44.1 km/h 27.4 mph /  44.1 km/h 60 % 0.0 in /  0 mm 146.0 W/m2 CLR
15:35 15.6 °F /  -9.1 °C 7.8 °F /  -13.4 °C 1018.8 in /  34496.6 hPa NW 31.5 mph /  50.7 km/h 31.5 mph /  50.7 km/h 60 % 0.0 in /  0 mm 214.0 W/m2 CLR
15:40 16.1 °F /  -8.8 °C 8.3 °F /  -13.2 °C 1018.5 in /  34486.4 hPa NW 25.9 mph /  41.7 km/h 25.9 mph /  41.7 km/h 60 % 0.0 in /  0 mm 606.0 W/m2 CLR
15:45 17.2 °F /  -8.2 °C 8.9 °F /  -12.8 °C 1018.5 in /  34486.4 hPa NW 29.6 mph /  47.6 km/h 29.6 mph /  47.6 km/h 58 % 0.0 in /  0 mm 288.0 W/m2 CLR
15:50 16.7 °F /  -8.5 °C 8.3 °F /  -13.2 °C 1018.8 in /  34496.6 hPa NW 24.1 mph /  38.8 km/h 24.1 mph /  38.8 km/h 58 % 0.0 in /  0 mm 200.0 W/m2 CLR
15:55 16.1 °F /  -8.8 °C 7.8 °F /  -13.4 °C 1018.8 in /  34496.6 hPa NNW 35.2 mph /  56.6 km/h 35.2 mph /  56.6 km/h 58 % 0.0 in /  0 mm 178.0 W/m2 CLR
16:00 16.1 °F /  -8.8 °C 8.1 °F /  -13.3 °C 1018.8 in /  34496.6 hPa North 24.1 mph /  38.8 km/h 24.1 mph /  38.8 km/h 59 % 0.0 in /  0 mm 162.0 W/m2 CLR
16:05 16.1 °F /  -8.8 °C 8.1 °F /  -13.3 °C 1018.8 in /  34496.6 hPa North 31.5 mph /  50.7 km/h 31.5 mph /  50.7 km/h 59 % 0.0 in /  0 mm 135.0 W/m2 CLR
16:10 16.1 °F /  -8.8 °C 7.8 °F /  -13.4 °C 1018.8 in /  34496.6 hPa NNW 25.9 mph /  41.7 km/h 25.9 mph /  41.7 km/h 58 % 0.0 in /  0 mm 139.0 W/m2 CLR
16:15 15.6 °F /  -9.1 °C 7.6 °F /  -13.6 °C 1018.8 in /  34496.6 hPa NNW 27.8 mph /  44.7 km/h 27.8 mph /  44.7 km/h 59 % 0.0 in /  0 mm 174.0 W/m2 CLR
16:20 15.6 °F /  -9.1 °C 7.8 °F /  -13.4 °C 1018.5 in /  34486.4 hPa NNW 30.6 mph /  49.2 km/h 30.6 mph /  49.2 km/h 60 % 0.0 in /  0 mm 359.0 W/m2 CLR
16:25 16.1 °F /  -8.8 °C 7.6 °F /  -13.6 °C 1018.8 in /  34496.6 hPa NNW 37.0 mph /  59.5 km/h 37.0 mph /  59.5 km/h 57 % 0.0 in /  0 mm 292.0 W/m2 CLR
16:30 16.1 °F /  -8.8 °C 7.6 °F /  -13.6 °C 1018.8 in /  34496.6 hPa NNW 32.2 mph /  51.8 km/h 32.2 mph /  51.8 km/h 57 % 0.0 in /  0 mm 151.0 W/m2 CLR
16:35 15.6 °F /  -9.1 °C 7.3 °F /  -13.7 °C 1018.8 in /  34496.6 hPa North 24.1 mph /  38.8 km/h 24.1 mph /  38.8 km/h 58 % 0.0 in /  0 mm 148.0 W/m2 CLR
16:40 15.6 °F /  -9.1 °C 7.6 °F /  -13.6 °C 1018.5 in /  34486.4 hPa NW 20.4 mph /  32.8 km/h 20.4 mph /  32.8 km/h 59 % 0.0 in /  0 mm 167.0 W/m2 CLR
16:45 15.6 °F /  -9.1 °C 7.6 °F /  -13.6 °C 1018.8 in /  34496.6 hPa NW 22.2 mph /  35.7 km/h 22.2 mph /  35.7 km/h 59 % 0.0 in /  0 mm 127.0 W/m2 CLR
16:50 15.6 °F /  -9.1 °C 7.6 °F /  -13.6 °C 1018.5 in /  34486.4 hPa NNW 31.5 mph /  50.7 km/h 31.5 mph /  50.7 km/h 59 % 0.0 in /  0 mm 105.0 W/m2 CLR
16:55 15.6 °F /  -9.1 °C 7.6 °F /  -13.6 °C 1018.8 in /  34496.6 hPa NW 14.8 mph /  23.8 km/h 14.8 mph /  23.8 km/h 59 % 0.0 in /  0 mm 107.0 W/m2 CLR
17:00 15.6 °F /  -9.1 °C 7.6 °F /  -13.6 °C 1018.5 in /  34486.4 hPa NW 29.6 mph /  47.6 km/h 29.6 mph /  47.6 km/h 59 % 0.0 in /  0 mm 100.0 W/m2 CLR
17:05 15.0 °F /  -9.4 °C 7.1 °F /  -13.8 °C 1018.8 in /  34496.6 hPa NNW 18.5 mph /  29.8 km/h 18.5 mph /  29.8 km/h 59 % 0.0 in /  0 mm 83.0 W/m2 CLR
17:10 15.0 °F /  -9.4 °C 7.1 °F /  -13.8 °C 1018.8 in /  34496.6 hPa NNW 33.3 mph /  53.6 km/h 33.3 mph /  53.6 km/h 59 % 0.0 in /  0 mm 46.0 W/m2 FEW
17:15 15.0 °F /  -9.4 °C 7.1 °F /  -13.8 °C 1018.8 in /  34496.6 hPa NNW 25.9 mph /  41.7 km/h 25.9 mph /  41.7 km/h 59 % 0.0 in /  0 mm 63.0 W/m2 SCT
17:20 14.4 °F /  -9.8 °C 6.8 °F /  -14 °C 1018.8 in /  34496.6 hPa NW 22.2 mph /  35.7 km/h 22.2 mph /  35.7 km/h 60 % 0.0 in /  0 mm 60.0 W/m2 SCT
17:25 14.4 °F /  -9.8 °C 6.8 °F /  -14 °C 1018.8 in /  34496.6 hPa NW 24.1 mph /  38.8 km/h 24.1 mph /  38.8 km/h 60 % 0.0 in /  0 mm 56.0 W/m2 SCT
17:30 14.4 °F /  -9.8 °C 6.8 °F /  -14 °C 1018.8 in /  34496.6 hPa NNW 24.1 mph /  38.8 km/h 24.1 mph /  38.8 km/h 60 % 0.0 in /  0 mm 54.0 W/m2 SCT
17:35 14.4 °F /  -9.8 °C 6.8 °F /  -14 °C 1018.8 in /  34496.6 hPa NW 24.1 mph /  38.8 km/h 24.1 mph /  38.8 km/h 60 % 0.0 in /  0 mm 32.0 W/m2 BKN
17:40 14.4 °F /  -9.8 °C 6.8 °F /  -14 °C 1018.8 in /  34496.6 hPa NNW 24.1 mph /  38.8 km/h 24.1 mph /  38.8 km/h 60 % 0.0 in /  0 mm 23.0 W/m2 BKN
17:45 13.9 °F /  -10.1 °C 6.5 °F /  -14.2 °C 1019.2 in /  34510.1 hPa North 18.5 mph /  29.8 km/h 18.5 mph /  29.8 km/h 61 % 0.0 in /  0 mm 21.0 W/m2 BKN
17:50 13.9 °F /  -10.1 °C 6.5 °F /  -14.2 °C 1019.2 in /  34510.1 hPa NNW 33.8 mph /  54.4 km/h 33.8 mph /  54.4 km/h 61 % 0.0 in /  0 mm 23.0 W/m2 BKN
17:55 13.9 °F /  -10.1 °C 6.5 °F /  -14.2 °C 1019.2 in /  34510.1 hPa NW 27.8 mph /  44.7 km/h 27.8 mph /  44.7 km/h 61 % 0.0 in /  0 mm 23.0 W/m2 BKN
18:00 13.3 °F /  -10.4 °C 6.4 °F /  -14.2 °C 1019.2 in /  34510.1 hPa NNW 33.3 mph /  53.6 km/h 33.3 mph /  53.6 km/h 63 % 0.0 in /  0 mm 21.0 W/m2 BKN
18:05 13.3 °F /  -10.4 °C 6.4 °F /  -14.2 °C 1019.2 in /  34510.1 hPa NW 24.1 mph /  38.8 km/h 24.1 mph /  38.8 km/h 63 % 0.0 in /  0 mm 18.0 W/m2 BKN
18:10 13.3 °F /  -10.4 °C 6.7 °F /  -14.1 °C 1019.2 in /  34510.1 hPa NW 25.9 mph /  41.7 km/h 25.9 mph /  41.7 km/h 64 % 0.0 in /  0 mm 12.0 W/m2 BKN
18:15 12.8 °F /  -10.7 °C 6.1 °F /  -14.4 °C 1019.5 in /  34520.3 hPa WNW 18.5 mph /  29.8 km/h 18.5 mph /  29.8 km/h 64 % 0.0 in /  0 mm 7.0 W/m2 BKN
18:20 12.8 °F /  -10.7 °C 6.3 °F /  -14.3 °C 1019.5 in /  34520.3 hPa NW 31.5 mph /  50.7 km/h 31.5 mph /  50.7 km/h 65 % 0.0 in /  0 mm 5.0 W/m2 OVC
18:25 12.8 °F /  -10.7 °C 6.6 °F /  -14.1 °C 1019.5 in /  34520.3 hPa NW 22.2 mph /  35.7 km/h 22.2 mph /  35.7 km/h 66 % 0.0 in /  0 mm 0.0 W/m2 OVC
18:30 12.8 °F /  -10.7 °C 6.6 °F /  -14.1 °C 1019.9 in /  34533.8 hPa NW 20.4 mph /  32.8 km/h 20.4 mph /  32.8 km/h 66 % 0.0 in /  0 mm 0.0 W/m2 OVC
18:35 12.8 °F /  -10.7 °C 6.6 °F /  -14.1 °C 1019.9 in /  34533.8 hPa NW 24.1 mph /  38.8 km/h 24.1 mph /  38.8 km/h 66 % 0.0 in /  0 mm 0.0 W/m2 OVC
18:40 12.8 °F /  -10.7 °C 6.6 °F /  -14.1 °C 1019.9 in /  34533.8 hPa NW 18.5 mph /  29.8 km/h 18.5 mph /  29.8 km/h 66 % 0.0 in /  0 mm 0.0 W/m2 CLR
18:45 12.8 °F /  -10.7 °C 6.6 °F /  -14.1 °C 1019.9 in /  34533.8 hPa NW 31.5 mph /  50.7 km/h 31.5 mph /  50.7 km/h 66 % 0.0 in /  0 mm 0.0 W/m2 CLR
18:50 12.8 °F /  -10.7 °C 6.6 °F /  -14.1 °C 1019.9 in /  34533.8 hPa WNW 24.1 mph /  38.8 km/h 24.1 mph /  38.8 km/h 66 % 0.0 in /  0 mm 0.0 W/m2 CLR
18:55 12.8 °F /  -10.7 °C 6.6 °F /  -14.1 °C 1019.9 in /  34533.8 hPa WNW 22.5 mph /  36.2 km/h 22.5 mph /  36.2 km/h 66 % 0.0 in /  0 mm 0.0 W/m2 CLR
19:00 12.8 °F /  -10.7 °C 6.6 °F /  -14.1 °C 1019.9 in /  34533.8 hPa NW 24.1 mph /  38.8 km/h 24.1 mph /  38.8 km/h 66 % 0.0 in /  0 mm 0.0 W/m2 CLR
19:05 12.2 °F /  -11 °C 6.1 °F /  -14.4 °C 1019.9 in /  34533.8 hPa NW 24.1 mph /  38.8 km/h 24.1 mph /  38.8 km/h 66 % 0.0 in /  0 mm 0.0 W/m2 CLR
19:10 12.2 °F /  -11 °C 6.1 °F /  -14.4 °C 1019.9 in /  34533.8 hPa NW 22.2 mph /  35.7 km/h 22.2 mph /  35.7 km/h 66 % 0.0 in /  0 mm 0.0 W/m2 CLR
19:15 12.2 °F /  -11 °C 6.1 °F /  -14.4 °C 1019.9 in /  34533.8 hPa WNW 24.1 mph /  38.8 km/h 24.1 mph /  38.8 km/h 66 % 0.0 in /  0 mm 0.0 W/m2 CLR
19:20 12.2 °F /  -11 °C 6.1 °F /  -14.4 °C 1019.9 in /  34533.8 hPa NW 20.4 mph /  32.8 km/h 20.4 mph /  32.8 km/h 66 % 0.0 in /  0 mm 0.0 W/m2 CLR
19:25 12.2 °F /  -11 °C 6.1 °F /  -14.4 °C 1019.9 in /  34533.8 hPa WNW 22.2 mph /  35.7 km/h 22.2 mph /  35.7 km/h 66 % 0.0 in /  0 mm 0.0 W/m2 CLR
19:30 12.2 °F /  -11 °C 6.3 °F /  -14.3 °C 1019.5 in /  34520.3 hPa NW 24.1 mph /  38.8 km/h 24.1 mph /  38.8 km/h 67 % 0.0 in /  0 mm 0.0 W/m2 CLR
19:35 12.2 °F /  -11 °C 6.1 °F /  -14.4 °C 1019.9 in /  34533.8 hPa WNW 22.5 mph /  36.2 km/h 22.5 mph /  36.2 km/h 66 % 0.0 in /  0 mm 0.0 W/m2 CLR
19:40 12.2 °F /  -11 °C 6.1 °F /  -14.4 °C 1019.9 in /  34533.8 hPa NW 24.1 mph /  38.8 km/h 24.1 mph /  38.8 km/h 66 % 0.0 in /  0 mm 0.0 W/m2 CLR
19:45 12.2 °F /  -11 °C 6.1 °F /  -14.4 °C 1019.9 in /  34533.8 hPa NW 18.5 mph /  29.8 km/h 18.5 mph /  29.8 km/h 66 % 0.0 in /  0 mm 0.0 W/m2 CLR
19:50 11.7 °F /  -11.3 °C 5.7 °F /  -14.6 °C 1019.5 in /  34520.3 hPa WNW 16.1 mph /  25.9 km/h 16.1 mph /  25.9 km/h 67 % 0.0 in /  0 mm 0.0 W/m2 CLR
19:55 11.7 °F /  -11.3 °C 5.7 °F /  -14.6 °C 1019.5 in /  34520.3 hPa West 16.7 mph /  26.9 km/h 16.7 mph /  26.9 km/h 67 % 0.0 in /  0 mm 0.0 W/m2 CLR
20:00 11.7 °F /  -11.3 °C 5.9 °F /  -14.5 °C 1019.2 in /  34510.1 hPa West 20.4 mph /  32.8 km/h 20.4 mph /  32.8 km/h 68 % 0.0 in /  0 mm 0.0 W/m2 CLR
20:05 11.7 °F /  -11.3 °C 6.2 °F /  -14.3 °C 1019.2 in /  34510.1 hPa West 14.5 mph /  23.3 km/h 14.5 mph /  23.3 km/h 69 % 0.0 in /  0 mm 0.0 W/m2 CLR
20:10 11.1 °F /  -11.6 °C 5.6 °F /  -14.7 °C 1019.2 in /  34510.1 hPa NW 18.5 mph /  29.8 km/h 18.5 mph /  29.8 km/h 69 % 0.0 in /  0 mm 0.0 W/m2 CLR
20:15 11.1 °F /  -11.6 °C 5.6 °F /  -14.7 °C 1019.2 in /  34510.1 hPa WNW 13.0 mph /  20.9 km/h 13.0 mph /  20.9 km/h 69 % 0.0 in /  0 mm 0.0 W/m2 CLR
20:20 11.1 °F /  -11.6 °C 5.8 °F /  -14.6 °C 1019.2 in /  34510.1 hPa NW 14.8 mph /  23.8 km/h 14.8 mph /  23.8 km/h 70 % 0.0 in /  0 mm 0.0 W/m2 CLR
20:25 11.1 °F /  -11.6 °C 5.8 °F /  -14.6 °C 1019.2 in /  34510.1 hPa Calm     70 % 0.0 in /  0 mm 0.0 W/m2 CLR
20:30 11.1 °F /  -11.6 °C 6.1 °F /  -14.4 °C 1019.2 in /  34510.1 hPa Calm     71 % 0.0 in /  0 mm 0.0 W/m2 CLR
20:35 10.6 °F /  -11.9 °C 5.5 °F /  -14.7 °C 1019.2 in /  34510.1 hPa NW 13.0 mph /  20.9 km/h 13.0 mph /  20.9 km/h 71 % 0.0 in /  0 mm 0.0 W/m2 CLR
20:40 10.6 °F /  -11.9 °C 5.3 °F /  -14.8 °C 1018.8 in /  34496.6 hPa NW 18.5 mph /  29.8 km/h 18.5 mph /  29.8 km/h 70 % 0.0 in /  0 mm 0.0 W/m2 CLR
20:45 10.6 °F /  -11.9 °C 5.3 °F /  -14.8 °C 1018.8 in /  34496.6 hPa NW 14.8 mph /  23.8 km/h 14.8 mph /  23.8 km/h 70 % 0.0 in /  0 mm 0.0 W/m2 CLR
20:50 10.6 °F /  -11.9 °C 5.3 °F /  -14.8 °C 1019.2 in /  34510.1 hPa NW 16.7 mph /  26.9 km/h 16.7 mph /  26.9 km/h 70 % 0.0 in /  0 mm 0.0 W/m2 CLR
20:55 11.1 °F /  -11.6 °C 5.8 °F /  -14.6 °C 1019.5 in /  34520.3 hPa NW 13.0 mph /  20.9 km/h 13.0 mph /  20.9 km/h 70 % 0.0 in /  0 mm 0.0 W/m2 CLR
20:57 11.1 °F /  -11.6 °C 5.8 °F /  -14.6 °C 1019.5 in /  34520.3 hPa NW 11.1 mph /  17.9 km/h 11.1 mph /  17.9 km/h 70 % 0.0 in /  0 mm 0.0 W/m2 CLR
21:02 11.1 °F /  -11.6 °C 6.1 °F /  -14.4 °C 1019.5 in /  34520.3 hPa NW 11.1 mph /  17.9 km/h 11.1 mph /  17.9 km/h 71 % 0.0 in /  0 mm 0.0 W/m2 CLR
21:07 11.1 °F /  -11.6 °C 6.1 °F /  -14.4 °C 1019.5 in /  34520.3 hPa NW 14.8 mph /  23.8 km/h 14.8 mph /  23.8 km/h 71 % 0.0 in /  0 mm 0.0 W/m2 CLR
21:12 11.1 °F /  -11.6 °C 6.3 °F /  -14.3 °C 1019.5 in /  34520.3 hPa NW 11.1 mph /  17.9 km/h 11.1 mph /  17.9 km/h 72 % 0.0 in /  0 mm 0.0 W/m2 CLR
21:17 11.1 °F /  -11.6 °C 6.4 °F /  -14.2 °C 1019.5 in /  34520.3 hPa NW 11.1 mph /  17.9 km/h 11.1 mph /  17.9 km/h 73 % 0.0 in /  0 mm 0.0 W/m2 CLR
21:22 11.1 °F /  -11.6 °C 6.4 °F /  -14.2 °C 1019.5 in /  34520.3 hPa NNW 12.9 mph /  20.8 km/h 12.9 mph /  20.8 km/h 73 % 0.0 in /  0 mm 0.0 W/m2 CLR
21:27 10.6 °F /  -11.9 °C 5.9 °F /  -14.5 °C 1019.5 in /  34520.3 hPa NW 11.1 mph /  17.9 km/h 11.1 mph /  17.9 km/h 73 % 0.0 in /  0 mm 0.0 W/m2 CLR
21:32 10.6 °F /  -11.9 °C 5.9 °F /  -14.5 °C 1019.2 in /  34510.1 hPa NW 9.3 mph /  15 km/h 9.3 mph /  15 km/h 73 % 0.0 in /  0 mm 0.0 W/m2 CLR
21:37 10.6 °F /  -11.9 °C 5.9 °F /  -14.5 °C 1019.5 in /  34520.3 hPa NW 11.1 mph /  17.9 km/h 11.1 mph /  17.9 km/h 73 % 0.0 in /  0 mm 0.0 W/m2 CLR
21:42 10.6 °F /  -11.9 °C 5.9 °F /  -14.5 °C 1019.5 in /  34520.3 hPa NW 13.0 mph /  20.9 km/h 13.0 mph /  20.9 km/h 73 % 0.0 in /  0 mm 0.0 W/m2 CLR
21:47 10.6 °F /  -11.9 °C 5.9 °F /  -14.5 °C 1019.5 in /  34520.3 hPa NW 13.0 mph /  20.9 km/h 13.0 mph /  20.9 km/h 73 % 0.0 in /  0 mm 0.0 W/m2 CLR
21:52 10.6 °F /  -11.9 °C 5.9 °F /  -14.5 °C 1019.5 in /  34520.3 hPa NW 13.0 mph /  20.9 km/h 13.0 mph /  20.9 km/h 73 % 0.0 in /  0 mm 0.0 W/m2 CLR
21:57 10.6 °F /  -11.9 °C 5.9 °F /  -14.5 °C 1019.5 in /  34520.3 hPa NW 13.0 mph /  20.9 km/h 13.0 mph /  20.9 km/h 73 % 0.0 in /  0 mm 0.0 W/m2 CLR
22:03 10.0 °F /  -12.2 °C 5.2 °F /  -14.9 °C 1019.5 in /  34520.3 hPa NW 14.8 mph /  23.8 km/h 14.8 mph /  23.8 km/h 72 % 0.0 in /  0 mm 0.0 W/m2 CLR
22:08 10.6 °F /  -11.9 °C 5.9 °F /  -14.5 °C 1019.5 in /  34520.3 hPa NW 13.0 mph /  20.9 km/h 13.0 mph /  20.9 km/h 73 % 0.0 in /  0 mm 0.0 W/m2 CLR
22:13 10.6 °F /  -11.9 °C 5.9 °F /  -14.5 °C 1019.5 in /  34520.3 hPa NW 19.3 mph /  31.1 km/h 19.3 mph /  31.1 km/h 73 % 0.0 in /  0 mm 0.0 W/m2 CLR
22:18 11.1 °F /  -11.6 °C 6.4 °F /  -14.2 °C 1019.9 in /  34533.8 hPa NW 18.5 mph /  29.8 km/h 18.5 mph /  29.8 km/h 73 % 0.0 in /  0 mm 0.0 W/m2 CLR
22:23 11.1 °F /  -11.6 °C 6.4 °F /  -14.2 °C 1019.9 in /  34533.8 hPa NW 16.7 mph /  26.9 km/h 16.7 mph /  26.9 km/h 73 % 0.0 in /  0 mm 0.0 W/m2 CLR
22:28 10.6 °F /  -11.9 °C 5.9 °F /  -14.5 °C 1019.9 in /  34533.8 hPa NW 16.7 mph /  26.9 km/h 16.7 mph /  26.9 km/h 73 % 0.0 in /  0 mm 0.0 W/m2 CLR
22:33 10.6 °F /  -11.9 °C 6.1 °F /  -14.4 °C 1019.9 in /  34533.8 hPa NNW 16.7 mph /  26.9 km/h 16.7 mph /  26.9 km/h 74 % 0.0 in /  0 mm 0.0 W/m2 CLR
22:38 10.6 °F /  -11.9 °C 6.1 °F /  -14.4 °C 1019.9 in /  34533.8 hPa NW 22.2 mph /  35.7 km/h 22.2 mph /  35.7 km/h 74 % 0.0 in /  0 mm 0.0 W/m2 CLR
22:43 10.6 °F /  -11.9 °C 6.1 °F /  -14.4 °C 1019.9 in /  34533.8 hPa NW 22.2 mph /  35.7 km/h 22.2 mph /  35.7 km/h 74 % 0.0 in /  0 mm 0.0 W/m2 CLR
22:48 10.6 °F /  -11.9 °C 6.3 °F /  -14.3 °C 1019.9 in /  34533.8 hPa NW 24.1 mph /  38.8 km/h 24.1 mph /  38.8 km/h 75 % 0.0 in /  0 mm 0.0 W/m2 CLR
22:53 10.6 °F /  -11.9 °C 6.3 °F /  -14.3 °C 1019.9 in /  34533.8 hPa NNW 27.8 mph /  44.7 km/h 27.8 mph /  44.7 km/h 75 % 0.0 in /  0 mm 0.0 W/m2 CLR
22:58 10.6 °F /  -11.9 °C 6.7 °F /  -14.1 °C 1019.9 in /  34533.8 hPa NNW 31.5 mph /  50.7 km/h 31.5 mph /  50.7 km/h 77 % 0.0 in /  0 mm 0.0 W/m2 CLR
23:03 10.6 °F /  -11.9 °C 6.9 °F /  -13.9 °C 1019.9 in /  34533.8 hPa NNW 29.6 mph /  47.6 km/h 29.6 mph /  47.6 km/h 78 % 0.0 in /  0 mm 0.0 W/m2 CLR
23:08 10.6 °F /  -11.9 °C 6.9 °F /  -13.9 °C 1019.9 in /  34533.8 hPa NW 24.1 mph /  38.8 km/h 24.1 mph /  38.8 km/h 78 % 0.0 in /  0 mm 0.0 W/m2 CLR
23:13 10.6 °F /  -11.9 °C 6.9 °F /  -13.9 °C 1019.9 in /  34533.8 hPa NNW 18.5 mph /  29.8 km/h 18.5 mph /  29.8 km/h 78 % 0.0 in /  0 mm 0.0 W/m2 CLR
23:18 10.6 °F /  -11.9 °C 7.1 °F /  -13.8 °C 1019.9 in /  34533.8 hPa NNW 33.3 mph /  53.6 km/h 33.3 mph /  53.6 km/h 79 % 0.0 in /  0 mm 0.0 W/m2 CLR
23:23 10.6 °F /  -11.9 °C 7.1 °F /  -13.8 °C 1019.9 in /  34533.8 hPa NW 30.6 mph /  49.2 km/h 30.6 mph /  49.2 km/h 79 % 0.0 in /  0 mm 0.0 W/m2 CLR
23:28 10.6 °F /  -11.9 °C 7.1 °F /  -13.8 °C 1019.9 in /  34533.8 hPa NNW 33.3 mph /  53.6 km/h 33.3 mph /  53.6 km/h 79 % 0.0 in /  0 mm 0.0 W/m2 CLR
23:33 10.6 °F /  -11.9 °C 7.2 °F /  -13.8 °C 1019.9 in /  34533.8 hPa North 31.5 mph /  50.7 km/h 31.5 mph /  50.7 km/h 80 % 0.0 in /  0 mm 0.0 W/m2 CLR
23:38 10.6 °F /  -11.9 °C 7.2 °F /  -13.8 °C 1019.9 in /  34533.8 hPa NNW 30.6 mph /  49.2 km/h 30.6 mph /  49.2 km/h 80 % 0.0 in /  0 mm 0.0 W/m2 CLR
23:43 10.6 °F /  -11.9 °C 7.2 °F /  -13.8 °C 1019.9 in /  34533.8 hPa NW 27.8 mph /  44.7 km/h 27.8 mph /  44.7 km/h 80 % 0.0 in /  0 mm 0.0 W/m2 CLR
23:48 10.0 °F /  -12.2 °C 6.7 °F /  -14.1 °C 1019.9 in /  34533.8 hPa NNW 31.5 mph /  50.7 km/h 31.5 mph /  50.7 km/h 80 % 0.0 in /  0 mm 0.0 W/m2 CLR
23:53 10.0 °F /  -12.2 °C 6.7 °F /  -14.1 °C 1019.9 in /  34533.8 hPa NNW 38.9 mph /  62.6 km/h 38.9 mph /  62.6 km/h 80 % 0.0 in /  0 mm 0.0 W/m2 CLR
23:58 10.0 °F /  -12.2 °C 6.7 °F /  -14.1 °C 1019.9 in /  34533.8 hPa NNW 33.3 mph /  53.6 km/h 33.3 mph /  53.6 km/h 80 % 0.0 in /  0 mm 0.0 W/m2 CLR
Lo Temps de Massalio
Compliments of Weather Underground - 1.25 mb